Terminal Aerodrome Forecast
Issued by NWS

Home | Current Version | Previous Version | Graphics & Text | Print | Product List | Glossary On
Versions: 1 2 3 4 5 6 7 8 9 10 11 12 13 14 15 16 17 18 19 20 21 22 23 24 25 26
365
FTUS43 KLOT 211504 AAA
TAFDPA
TAF AMD
KDPA 211504Z 2115/2212 12007KT P6SM SCT060 BKN100
     FM220330 18006KT P6SM SCT080 BKN100 PROB30 2204/2207 5SM -TSRA
      BKN050CB
     FM220700 20006KT P6SM VCTS BKN050 BKN100CB
      TEMPO 2207/2211 3SM TSRA BKN035CB=

USA.gov is the U.S. government's official web portal to all federal, state and local government web resources and services.